sensor_id;sensor_type;location;lat;lon;timestamp;P1;durP1;ratioP1;P2;durP2;ratioP2
76850;SDS011;65824;43.726;20.692;2023-04-29T00:01:29;22.15;;;10.02;;
76850;SDS011;65824;43.726;20.692;2023-04-29T00:03:55;18.00;;;9.05;;
76850;SDS011;65824;43.726;20.692;2023-04-29T00:06:20;14.18;;;7.78;;
76850;SDS011;65824;43.726;20.692;2023-04-29T00:08:46;13.82;;;7.85;;
76850;SDS011;65824;43.726;20.692;2023-04-29T00:11:11;15.57;;;8.05;;
76850;SDS011;65824;43.726;20.692;2023-04-29T00:13:37;20.05;;;8.85;;
76850;SDS011;65824;43.726;20.692;2023-04-29T00:16:05;18.77;;;10.50;;
76850;SDS011;65824;43.726;20.692;2023-04-29T00:18:31;15.27;;;8.60;;
76850;SDS011;65824;43.726;20.692;2023-04-29T00:20:57;15.35;;;8.75;;
76850;SDS011;65824;43.726;20.692;2023-04-29T00:23:22;15.68;;;9.40;;
76850;SDS011;65824;43.726;20.692;2023-04-29T00:25:48;16.08;;;8.68;;
76850;SDS011;65824;43.726;20.692;2023-04-29T00:28:17;12.57;;;7.72;;
76850;SDS011;65824;43.726;20.692;2023-04-29T00:30:42;15.73;;;7.85;;
76850;SDS011;65824;43.726;20.692;2023-04-29T00:33:08;13.70;;;7.38;;
76850;SDS011;65824;43.726;20.692;2023-04-29T00:35:33;14.55;;;7.60;;
76850;SDS011;65824;43.726;20.692;2023-04-29T00:37:59;13.95;;;7.20;;
76850;SDS011;65824;43.726;20.692;2023-04-29T00:40:24;13.23;;;6.97;;
76850;SDS011;65824;43.726;20.692;2023-04-29T00:42:52;13.02;;;7.43;;
76850;SDS011;65824;43.726;20.692;2023-04-29T00:45:17;15.77;;;7.47;;
76850;SDS011;65824;43.726;20.692;2023-04-29T00:47:43;15.15;;;7.68;;
76850;SDS011;65824;43.726;20.692;2023-04-29T00:50:08;14.13;;;7.57;;
76850;SDS011;65824;43.726;20.692;2023-04-29T00:52:35;13.00;;;7.53;;
76850;SDS011;65824;43.726;20.692;2023-04-29T00:55:02;13.18;;;6.53;;
76850;SDS011;65824;43.726;20.692;2023-04-29T00:57:31;17.80;;;7.25;;
76850;SDS011;65824;43.726;20.692;2023-04-29T00:59:58;12.25;;;7.15;;
76850;SDS011;65824;43.726;20.692;2023-04-29T01:02:24;10.68;;;6.18;;
76850;SDS011;65824;43.726;20.692;2023-04-29T01:04:50;11.05;;;6.13;;
76850;SDS011;65824;43.726;20.692;2023-04-29T01:07:25;11.38;;;6.38;;
76850;SDS011;65824;43.726;20.692;2023-04-29T01:10:19;11.15;;;6.13;;
76850;SDS011;65824;43.726;20.692;2023-04-29T01:16:02;11.75;;;6.85;;
76850;SDS011;65824;43.726;20.692;2023-04-29T01:19:13;12.63;;;7.32;;
76850;SDS011;65824;43.726;20.692;2023-04-29T01:21:19;13.77;;;6.50;;
76850;SDS011;65824;43.726;20.692;2023-04-29T01:23:44;12.35;;;6.93;;
76850;SDS011;65824;43.726;20.692;2023-04-29T01:26:10;10.57;;;6.25;;
76850;SDS011;65824;43.726;20.692;2023-04-29T01:28:39;11.45;;;6.20;;
76850;SDS011;65824;43.726;20.692;2023-04-29T01:41:34;13.98;;;7.50;;
76850;SDS011;65824;43.726;20.692;2023-04-29T01:44:00;13.50;;;7.68;;
76850;SDS011;65824;43.726;20.692;2023-04-29T01:46:28;11.13;;;6.93;;
76850;SDS011;65824;43.726;20.692;2023-04-29T01:48:53;15.00;;;6.95;;
76850;SDS011;65824;43.726;20.692;2023-04-29T01:51:19;11.55;;;6.82;;
76850;SDS011;65824;43.726;20.692;2023-04-29T01:53:45;21.52;;;7.88;;
76850;SDS011;65824;43.726;20.692;2023-04-29T01:56:10;14.40;;;8.10;;
76850;SDS011;65824;43.726;20.692;2023-04-29T01:58:36;13.10;;;7.88;;
76850;SDS011;65824;43.726;20.692;2023-04-29T02:01:01;11.68;;;7.43;;
76850;SDS011;65824;43.726;20.692;2023-04-29T02:03:27;13.52;;;7.93;;
76850;SDS011;65824;43.726;20.692;2023-04-29T02:05:52;12.57;;;7.43;;
76850;SDS011;65824;43.726;20.692;2023-04-29T02:08:21;16.25;;;7.85;;
76850;SDS011;65824;43.726;20.692;2023-04-29T02:10:54;10.80;;;7.25;;
76850;SDS011;65824;43.726;20.692;2023-04-29T02:13:21;12.95;;;7.43;;
76850;SDS011;65824;43.726;20.692;2023-04-29T02:15:47;14.50;;;8.27;;
76850;SDS011;65824;43.726;20.692;2023-04-29T02:18:12;13.18;;;7.45;;
76850;SDS011;65824;43.726;20.692;2023-04-29T02:20:38;14.57;;;8.52;;
76850;SDS011;65824;43.726;20.692;2023-04-29T02:23:03;15.23;;;7.88;;
76850;SDS011;65824;43.726;20.692;2023-04-29T02:25:29;12.50;;;7.95;;
76850;SDS011;65824;43.726;20.692;2023-04-29T02:27:55;16.00;;;7.90;;
76850;SDS011;65824;43.726;20.692;2023-04-29T02:30:20;15.30;;;8.68;;
76850;SDS011;65824;43.726;20.692;2023-04-29T02:32:46;13.65;;;8.25;;
76850;SDS011;65824;43.726;20.692;2023-04-29T02:35:11;15.43;;;8.30;;
76850;SDS011;65824;43.726;20.692;2023-04-29T02:37:37;18.65;;;8.68;;
76850;SDS011;65824;43.726;20.692;2023-04-29T02:40:02;16.15;;;8.27;;
76850;SDS011;65824;43.726;20.692;2023-04-29T02:42:29;17.83;;;7.78;;
76850;SDS011;65824;43.726;20.692;2023-04-29T02:44:54;15.52;;;8.40;;
76850;SDS011;65824;43.726;20.692;2023-04-29T02:47:20;15.23;;;8.57;;
76850;SDS011;65824;43.726;20.692;2023-04-29T02:49:45;18.08;;;9.25;;
76850;SDS011;65824;43.726;20.692;2023-04-29T02:52:11;13.68;;;8.60;;
76850;SDS011;65824;43.726;20.692;2023-04-29T02:54:37;14.43;;;8.52;;
76850;SDS011;65824;43.726;20.692;2023-04-29T02:57:02;13.52;;;8.02;;
76850;SDS011;65824;43.726;20.692;2023-04-29T02:59:27;16.70;;;8.35;;
76850;SDS011;65824;43.726;20.692;2023-04-29T03:01:53;15.43;;;8.43;;
76850;SDS011;65824;43.726;20.692;2023-04-29T03:04:21;14.13;;;7.95;;
76850;SDS011;65824;43.726;20.692;2023-04-29T03:06:47;15.55;;;8.13;;
76850;SDS011;65824;43.726;20.692;2023-04-29T03:09:14;15.15;;;8.80;;
76850;SDS011;65824;43.726;20.692;2023-04-29T03:11:39;14.38;;;8.00;;
76850;SDS011;65824;43.726;20.692;2023-04-29T03:14:05;13.52;;;8.48;;
76850;SDS011;65824;43.726;20.692;2023-04-29T03:16:31;17.95;;;8.57;;
76850;SDS011;65824;43.726;20.692;2023-04-29T03:18:56;18.90;;;8.95;;
76850;SDS011;65824;43.726;20.692;2023-04-29T03:21:22;18.15;;;9.25;;
76850;SDS011;65824;43.726;20.692;2023-04-29T03:23:49;17.30;;;8.95;;
76850;SDS011;65824;43.726;20.692;2023-04-29T03:26:14;15.73;;;9.30;;
76850;SDS011;65824;43.726;20.692;2023-04-29T03:28:40;17.60;;;9.68;;
76850;SDS011;65824;43.726;20.692;2023-04-29T03:31:06;17.17;;;9.25;;
76850;SDS011;65824;43.726;20.692;2023-04-29T03:33:31;20.40;;;9.80;;
76850;SDS011;65824;43.726;20.692;2023-04-29T03:35:56;16.10;;;9.60;;
76850;SDS011;65824;43.726;20.692;2023-04-29T03:38:22;19.33;;;9.82;;
76850;SDS011;65824;43.726;20.692;2023-04-29T03:40:48;18.02;;;9.35;;
76850;SDS011;65824;43.726;20.692;2023-04-29T03:43:14;18.13;;;10.38;;
76850;SDS011;65824;43.726;20.692;2023-04-29T03:45:39;18.75;;;9.82;;
76850;SDS011;65824;43.726;20.692;2023-04-29T03:48:06;16.58;;;9.75;;
76850;SDS011;65824;43.726;20.692;2023-04-29T03:50:34;15.20;;;9.20;;
76850;SDS011;65824;43.726;20.692;2023-04-29T03:53:00;20.23;;;10.48;;
76850;SDS011;65824;43.726;20.692;2023-04-29T03:55:26;17.95;;;9.98;;
76850;SDS011;65824;43.726;20.692;2023-04-29T03:57:51;17.67;;;9.65;;
76850;SDS011;65824;43.726;20.692;2023-04-29T04:00:17;17.95;;;10.73;;
76850;SDS011;65824;43.726;20.692;2023-04-29T04:02:42;17.25;;;10.52;;
76850;SDS011;65824;43.726;20.692;2023-04-29T04:05:08;17.90;;;10.15;;
76850;SDS011;65824;43.726;20.692;2023-04-29T04:07:34;22.27;;;12.23;;
76850;SDS011;65824;43.726;20.692;2023-04-29T04:10:00;20.77;;;11.02;;
76850;SDS011;65824;43.726;20.692;2023-04-29T04:12:25;19.92;;;11.20;;
76850;SDS011;65824;43.726;20.692;2023-04-29T04:14:51;17.73;;;9.75;;
76850;SDS011;65824;43.726;20.692;2023-04-29T04:17:17;17.85;;;9.60;;
76850;SDS011;65824;43.726;20.692;2023-04-29T04:19:42;19.48;;;9.88;;
76850;SDS011;65824;43.726;20.692;2023-04-29T04:22:07;16.60;;;10.38;;
76850;SDS011;65824;43.726;20.692;2023-04-29T04:24:33;16.30;;;10.00;;
76850;SDS011;65824;43.726;20.692;2023-04-29T04:26:58;18.50;;;9.93;;
76850;SDS011;65824;43.726;20.692;2023-04-29T04:29:24;18.08;;;9.45;;
76850;SDS011;65824;43.726;20.692;2023-04-29T04:31:49;16.38;;;9.60;;
76850;SDS011;65824;43.726;20.692;2023-04-29T04:34:15;18.92;;;10.27;;
76850;SDS011;65824;43.726;20.692;2023-04-29T04:36:41;19.70;;;10.40;;
76850;SDS011;65824;43.726;20.692;2023-04-29T04:39:06;21.05;;;11.52;;
76850;SDS011;65824;43.726;20.692;2023-04-29T04:41:32;22.67;;;12.80;;
76850;SDS011;65824;43.726;20.692;2023-04-29T04:43:58;22.00;;;11.68;;
76850;SDS011;65824;43.726;20.692;2023-04-29T04:46:23;19.83;;;11.38;;
76850;SDS011;65824;43.726;20.692;2023-04-29T04:48:49;20.05;;;10.77;;
76850;SDS011;65824;43.726;20.692;2023-04-29T04:51:15;16.65;;;9.40;;
76850;SDS011;65824;43.726;20.692;2023-04-29T04:53:40;17.67;;;8.25;;
76850;SDS011;65824;43.726;20.692;2023-04-29T04:56:06;16.02;;;8.75;;
76850;SDS011;65824;43.726;20.692;2023-04-29T04:58:32;15.32;;;8.65;;
76850;SDS011;65824;43.726;20.692;2023-04-29T05:01:00;16.02;;;9.30;;
76850;SDS011;65824;43.726;20.692;2023-04-29T05:03:26;19.83;;;9.60;;
76850;SDS011;65824;43.726;20.692;2023-04-29T05:05:52;21.20;;;9.38;;
76850;SDS011;65824;43.726;20.692;2023-04-29T05:08:19;18.60;;;9.20;;
76850;SDS011;65824;43.726;20.692;2023-04-29T05:10:44;17.40;;;9.23;;
76850;SDS011;65824;43.726;20.692;2023-04-29T05:13:10;18.63;;;9.10;;
76850;SDS011;65824;43.726;20.692;2023-04-29T05:15:35;17.92;;;9.45;;
76850;SDS011;65824;43.726;20.692;2023-04-29T05:18:01;18.15;;;9.48;;
76850;SDS011;65824;43.726;20.692;2023-04-29T05:20:28;17.17;;;8.57;;
76850;SDS011;65824;43.726;20.692;2023-04-29T05:22:53;20.92;;;9.55;;
76850;SDS011;65824;43.726;20.692;2023-04-29T05:25:19;20.88;;;9.68;;
76850;SDS011;65824;43.726;20.692;2023-04-29T05:27:44;17.65;;;9.00;;
76850;SDS011;65824;43.726;20.692;2023-04-29T05:30:10;14.30;;;8.45;;
76850;SDS011;65824;43.726;20.692;2023-04-29T05:32:35;14.32;;;7.88;;
76850;SDS011;65824;43.726;20.692;2023-04-29T05:35:01;14.73;;;8.15;;
76850;SDS011;65824;43.726;20.692;2023-04-29T05:37:26;14.20;;;7.38;;
76850;SDS011;65824;43.726;20.692;2023-04-29T05:39:55;13.93;;;7.45;;
76850;SDS011;65824;43.726;20.692;2023-04-29T05:42:20;13.52;;;7.50;;
76850;SDS011;65824;43.726;20.692;2023-04-29T05:44:49;14.45;;;8.00;;
76850;SDS011;65824;43.726;20.692;2023-04-29T05:47:15;17.02;;;8.40;;
76850;SDS011;65824;43.726;20.692;2023-04-29T05:49:40;14.68;;;8.57;;
76850;SDS011;65824;43.726;20.692;2023-04-29T05:52:06;17.00;;;8.32;;
76850;SDS011;65824;43.726;20.692;2023-04-29T05:54:34;13.27;;;8.32;;
76850;SDS011;65824;43.726;20.692;2023-04-29T05:57:00;14.93;;;7.82;;
76850;SDS011;65824;43.726;20.692;2023-04-29T05:59:29;14.65;;;8.20;;
76850;SDS011;65824;43.726;20.692;2023-04-29T06:01:56;16.90;;;10.05;;
76850;SDS011;65824;43.726;20.692;2023-04-29T06:04:24;17.83;;;9.32;;
76850;SDS011;65824;43.726;20.692;2023-04-29T06:06:54;16.10;;;9.13;;
76850;SDS011;65824;43.726;20.692;2023-04-29T06:09:21;17.80;;;9.27;;
76850;SDS011;65824;43.726;20.692;2023-04-29T06:11:47;15.90;;;8.57;;
76850;SDS011;65824;43.726;20.692;2023-04-29T06:14:12;18.23;;;10.15;;
76850;SDS011;65824;43.726;20.692;2023-04-29T06:16:38;32.45;;;20.52;;
76850;SDS011;65824;43.726;20.692;2023-04-29T06:19:04;39.40;;;26.17;;
76850;SDS011;65824;43.726;20.692;2023-04-29T06:21:30;26.15;;;17.80;;
76850;SDS011;65824;43.726;20.692;2023-04-29T06:23:57;24.75;;;16.05;;
76850;SDS011;65824;43.726;20.692;2023-04-29T06:26:22;26.27;;;16.40;;
76850;SDS011;65824;43.726;20.692;2023-04-29T06:28:49;21.65;;;12.93;;
76850;SDS011;65824;43.726;20.692;2023-04-29T06:31:16;16.38;;;10.75;;
76850;SDS011;65824;43.726;20.692;2023-04-29T06:33:41;16.75;;;9.52;;
76850;SDS011;65824;43.726;20.692;2023-04-29T06:36:07;18.50;;;9.18;;
76850;SDS011;65824;43.726;20.692;2023-04-29T06:38:33;15.13;;;9.20;;
76850;SDS011;65824;43.726;20.692;2023-04-29T06:40:59;16.02;;;8.93;;
76850;SDS011;65824;43.726;20.692;2023-04-29T06:43:26;18.52;;;9.52;;
76850;SDS011;65824;43.726;20.692;2023-04-29T06:45:52;17.10;;;9.25;;
76850;SDS011;65824;43.726;20.692;2023-04-29T06:48:17;14.05;;;8.77;;
76850;SDS011;65824;43.726;20.692;2023-04-29T06:50:50;13.95;;;8.35;;
76850;SDS011;65824;43.726;20.692;2023-04-29T06:53:16;16.17;;;8.48;;
76850;SDS011;65824;43.726;20.692;2023-04-29T06:55:42;11.77;;;7.55;;
76850;SDS011;65824;43.726;20.692;2023-04-29T06:58:09;13.13;;;7.60;;
76850;SDS011;65824;43.726;20.692;2023-04-29T07:00:34;11.95;;;7.75;;
76850;SDS011;65824;43.726;20.692;2023-04-29T07:03:01;14.65;;;8.30;;
76850;SDS011;65824;43.726;20.692;2023-04-29T07:05:27;14.30;;;8.35;;
76850;SDS011;65824;43.726;20.692;2023-04-29T07:07:53;16.15;;;8.77;;
76850;SDS011;65824;43.726;20.692;2023-04-29T07:10:19;13.93;;;8.18;;
76850;SDS011;65824;43.726;20.692;2023-04-29T07:12:44;16.13;;;8.80;;
76850;SDS011;65824;43.726;20.692;2023-04-29T07:15:10;15.15;;;8.90;;
76850;SDS011;65824;43.726;20.692;2023-04-29T07:17:35;17.42;;;10.20;;
76850;SDS011;65824;43.726;20.692;2023-04-29T07:20:03;13.27;;;8.32;;
76850;SDS011;65824;43.726;20.692;2023-04-29T07:22:29;15.05;;;7.32;;
76850;SDS011;65824;43.726;20.692;2023-04-29T07:24:55;13.45;;;7.88;;
76850;SDS011;65824;43.726;20.692;2023-04-29T07:27:21;14.88;;;8.15;;
76850;SDS011;65824;43.726;20.692;2023-04-29T07:29:47;12.30;;;7.32;;
76850;SDS011;65824;43.726;20.692;2023-04-29T07:32:13;12.80;;;7.10;;
76850;SDS011;65824;43.726;20.692;2023-04-29T07:34:40;12.95;;;7.25;;
76850;SDS011;65824;43.726;20.692;2023-04-29T07:37:06;14.30;;;8.00;;
76850;SDS011;65824;43.726;20.692;2023-04-29T07:39:32;11.77;;;6.95;;
76850;SDS011;65824;43.726;20.692;2023-04-29T07:41:59;24.15;;;7.72;;
76850;SDS011;65824;43.726;20.692;2023-04-29T07:44:25;14.60;;;7.30;;
76850;SDS011;65824;43.726;20.692;2023-04-29T07:46:50;16.63;;;7.57;;
76850;SDS011;65824;43.726;20.692;2023-04-29T07:49:19;14.27;;;7.25;;
76850;SDS011;65824;43.726;20.692;2023-04-29T07:51:44;17.10;;;8.10;;
76850;SDS011;65824;43.726;20.692;2023-04-29T07:54:10;16.95;;;7.50;;
76850;SDS011;65824;43.726;20.692;2023-04-29T07:56:36;16.75;;;7.60;;
76850;SDS011;65824;43.726;20.692;2023-04-29T07:59:01;15.75;;;7.75;;
76850;SDS011;65824;43.726;20.692;2023-04-29T08:01:27;12.77;;;7.40;;
76850;SDS011;65824;43.726;20.692;2023-04-29T08:03:53;16.73;;;7.25;;
76850;SDS011;65824;43.726;20.692;2023-04-29T08:06:18;13.88;;;7.28;;
76850;SDS011;65824;43.726;20.692;2023-04-29T08:08:46;12.93;;;7.10;;
76850;SDS011;65824;43.726;20.692;2023-04-29T08:11:16;14.48;;;7.68;;
76850;SDS011;65824;43.726;20.692;2023-04-29T08:13:44;19.42;;;7.45;;
76850;SDS011;65824;43.726;20.692;2023-04-29T08:16:13;14.15;;;7.93;;
76850;SDS011;65824;43.726;20.692;2023-04-29T08:18:39;16.60;;;8.30;;
76850;SDS011;65824;43.726;20.692;2023-04-29T08:21:04;17.73;;;8.60;;
76850;SDS011;65824;43.726;20.692;2023-04-29T08:23:35;17.90;;;7.57;;
76850;SDS011;65824;43.726;20.692;2023-04-29T08:26:01;14.88;;;7.57;;
76850;SDS011;65824;43.726;20.692;2023-04-29T08:28:27;10.52;;;5.05;;
76850;SDS011;65824;43.726;20.692;2023-04-29T08:30:54;9.40;;;5.05;;
76850;SDS011;65824;43.726;20.692;2023-04-29T08:33:20;10.85;;;5.63;;
76850;SDS011;65824;43.726;20.692;2023-04-29T08:35:47;9.25;;;4.93;;
76850;SDS011;65824;43.726;20.692;2023-04-29T08:38:14;11.07;;;6.28;;
76850;SDS011;65824;43.726;20.692;2023-04-29T08:40:44;8.88;;;5.00;;
76850;SDS011;65824;43.726;20.692;2023-04-29T08:43:12;7.82;;;4.43;;
76850;SDS011;65824;43.726;20.692;2023-04-29T08:45:57;10.25;;;5.40;;
76850;SDS011;65824;43.726;20.692;2023-04-29T08:48:23;11.38;;;5.43;;
76850;SDS011;65824;43.726;20.692;2023-04-29T08:50:50;9.25;;;4.68;;
76850;SDS011;65824;43.726;20.692;2023-04-29T08:53:16;8.60;;;5.05;;
76850;SDS011;65824;43.726;20.692;2023-04-29T08:55:43;9.80;;;4.53;;
76850;SDS011;65824;43.726;20.692;2023-04-29T08:58:10;10.45;;;5.47;;
76850;SDS011;65824;43.726;20.692;2023-04-29T09:00:36;7.85;;;4.45;;
76850;SDS011;65824;43.726;20.692;2023-04-29T09:03:13;10.40;;;5.50;;
76850;SDS011;65824;43.726;20.692;2023-04-29T09:05:41;8.60;;;5.00;;
76850;SDS011;65824;43.726;20.692;2023-04-29T09:08:10;7.85;;;4.53;;
76850;SDS011;65824;43.726;20.692;2023-04-29T09:10:36;10.27;;;4.75;;
76850;SDS011;65824;43.726;20.692;2023-04-29T09:13:06;9.10;;;4.50;;
76850;SDS011;65824;43.726;20.692;2023-04-29T09:15:36;10.07;;;4.63;;
76850;SDS011;65824;43.726;20.692;2023-04-29T09:18:04;11.25;;;4.78;;
76850;SDS011;65824;43.726;20.692;2023-04-29T09:20:30;9.15;;;4.45;;
76850;SDS011;65824;43.726;20.692;2023-04-29T09:22:56;7.28;;;4.00;;
76850;SDS011;65824;43.726;20.692;2023-04-29T09:25:28;9.88;;;4.85;;
76850;SDS011;65824;43.726;20.692;2023-04-29T09:27:55;6.80;;;4.40;;
76850;SDS011;65824;43.726;20.692;2023-04-29T09:30:21;8.40;;;4.63;;
76850;SDS011;65824;43.726;20.692;2023-04-29T09:33:06;7.70;;;4.25;;
76850;SDS011;65824;43.726;20.692;2023-04-29T09:35:32;7.53;;;4.00;;
76850;SDS011;65824;43.726;20.692;2023-04-29T09:38:08;6.88;;;3.72;;
76850;SDS011;65824;43.726;20.692;2023-04-29T09:40:35;9.57;;;4.15;;
76850;SDS011;65824;43.726;20.692;2023-04-29T09:43:01;7.95;;;3.92;;
76850;SDS011;65824;43.726;20.692;2023-04-29T09:45:38;7.20;;;3.63;;
76850;SDS011;65824;43.726;20.692;2023-04-29T09:48:06;8.20;;;4.00;;
76850;SDS011;65824;43.726;20.692;2023-04-29T09:50:36;7.63;;;3.72;;
76850;SDS011;65824;43.726;20.692;2023-04-29T09:53:02;9.65;;;3.90;;
76850;SDS011;65824;43.726;20.692;2023-04-29T09:55:29;10.43;;;5.00;;
76850;SDS011;65824;43.726;20.692;2023-04-29T09:57:56;8.52;;;4.50;;
76850;SDS011;65824;43.726;20.692;2023-04-29T10:00:21;9.00;;;3.90;;
76850;SDS011;65824;43.726;20.692;2023-04-29T10:02:48;11.57;;;4.43;;
76850;SDS011;65824;43.726;20.692;2023-04-29T10:05:16;10.02;;;4.78;;
76850;SDS011;65824;43.726;20.692;2023-04-29T10:07:45;7.97;;;4.20;;
76850;SDS011;65824;43.726;20.692;2023-04-29T10:10:11;9.63;;;4.55;;
76850;SDS011;65824;43.726;20.692;2023-04-29T10:12:39;9.82;;;4.50;;
76850;SDS011;65824;43.726;20.692;2023-04-29T10:15:15;7.10;;;4.47;;
76850;SDS011;65824;43.726;20.692;2023-04-29T10:18:20;7.75;;;4.00;;
76850;SDS011;65824;43.726;20.692;2023-04-29T10:20:46;6.85;;;4.30;;
76850;SDS011;65824;43.726;20.692;2023-04-29T10:23:14;6.97;;;3.95;;
76850;SDS011;65824;43.726;20.692;2023-04-29T10:25:43;10.05;;;4.68;;
76850;SDS011;65824;43.726;20.692;2023-04-29T10:28:11;9.55;;;4.15;;
76850;SDS011;65824;43.726;20.692;2023-04-29T10:30:41;10.43;;;3.95;;
76850;SDS011;65824;43.726;20.692;2023-04-29T10:33:08;9.73;;;5.45;;
76850;SDS011;65824;43.726;20.692;2023-04-29T10:35:35;11.10;;;4.60;;
76850;SDS011;65824;43.726;20.692;2023-04-29T10:38:03;7.97;;;4.35;;
76850;SDS011;65824;43.726;20.692;2023-04-29T10:40:43;10.60;;;5.57;;
76850;SDS011;65824;43.726;20.692;2023-04-29T10:43:12;11.98;;;4.68;;
76850;SDS011;65824;43.726;20.692;2023-04-29T10:45:39;7.53;;;4.07;;
76850;SDS011;65824;43.726;20.692;2023-04-29T10:48:07;7.68;;;3.92;;
76850;SDS011;65824;43.726;20.692;2023-04-29T10:53:18;7.20;;;4.45;;
76850;SDS011;65824;43.726;20.692;2023-04-29T10:55:48;9.20;;;4.72;;
76850;SDS011;65824;43.726;20.692;2023-04-29T10:58:39;8.85;;;4.30;;
76850;SDS011;65824;43.726;20.692;2023-04-29T11:01:16;7.60;;;4.40;;
76850;SDS011;65824;43.726;20.692;2023-04-29T11:06:15;10.20;;;4.90;;
76850;SDS011;65824;43.726;20.692;2023-04-29T11:08:40;13.18;;;6.60;;
76850;SDS011;65824;43.726;20.692;2023-04-29T11:11:07;9.65;;;4.82;;
76850;SDS011;65824;43.726;20.692;2023-04-29T11:13:36;7.28;;;3.90;;
76850;SDS011;65824;43.726;20.692;2023-04-29T11:16:04;8.82;;;3.90;;
76850;SDS011;65824;43.726;20.692;2023-04-29T11:18:30;9.30;;;4.22;;
76850;SDS011;65824;43.726;20.692;2023-04-29T11:23:34;9.30;;;4.35;;
76850;SDS011;65824;43.726;20.692;2023-04-29T11:26:00;10.02;;;5.15;;
76850;SDS011;65824;43.726;20.692;2023-04-29T11:28:26;7.40;;;4.10;;
76850;SDS011;65824;43.726;20.692;2023-04-29T11:30:52;8.50;;;4.18;;
76850;SDS011;65824;43.726;20.692;2023-04-29T11:33:21;8.70;;;5.10;;
76850;SDS011;65824;43.726;20.692;2023-04-29T11:35:48;11.52;;;6.32;;
76850;SDS011;65824;43.726;20.692;2023-04-29T11:38:14;9.63;;;5.20;;
76850;SDS011;65824;43.726;20.692;2023-04-29T11:40:49;11.32;;;6.03;;
76850;SDS011;65824;43.726;20.692;2023-04-29T11:43:19;11.00;;;6.40;;
76850;SDS011;65824;43.726;20.692;2023-04-29T11:45:45;7.80;;;5.00;;
76850;SDS011;65824;43.726;20.692;2023-04-29T11:48:20;8.25;;;4.18;;
76850;SDS011;65824;43.726;20.692;2023-04-29T11:50:47;7.95;;;4.13;;
76850;SDS011;65824;43.726;20.692;2023-04-29T11:53:15;11.55;;;4.45;;
76850;SDS011;65824;43.726;20.692;2023-04-29T11:55:41;8.25;;;4.20;;
76850;SDS011;65824;43.726;20.692;2023-04-29T11:58:07;7.28;;;4.07;;
76850;SDS011;65824;43.726;20.692;2023-04-29T12:00:33;9.63;;;4.82;;
76850;SDS011;65824;43.726;20.692;2023-04-29T12:02:59;9.00;;;4.30;;
76850;SDS011;65824;43.726;20.692;2023-04-29T12:05:24;14.23;;;7.10;;
76850;SDS011;65824;43.726;20.692;2023-04-29T12:07:50;11.70;;;4.65;;
76850;SDS011;65824;43.726;20.692;2023-04-29T12:10:16;13.15;;;5.40;;
76850;SDS011;65824;43.726;20.692;2023-04-29T12:12:41;8.32;;;4.63;;
76850;SDS011;65824;43.726;20.692;2023-04-29T12:15:11;9.65;;;4.18;;
76850;SDS011;65824;43.726;20.692;2023-04-29T12:17:38;11.63;;;5.63;;
76850;SDS011;65824;43.726;20.692;2023-04-29T12:20:05;10.32;;;5.18;;
76850;SDS011;65824;43.726;20.692;2023-04-29T12:22:32;12.50;;;4.68;;
76850;SDS011;65824;43.726;20.692;2023-04-29T12:24:58;11.00;;;4.65;;
76850;SDS011;65824;43.726;20.692;2023-04-29T12:27:23;13.15;;;7.32;;
76850;SDS011;65824;43.726;20.692;2023-04-29T12:29:53;12.07;;;4.68;;
76850;SDS011;65824;43.726;20.692;2023-04-29T12:32:21;12.90;;;6.28;;
76850;SDS011;65824;43.726;20.692;2023-04-29T12:34:49;12.68;;;4.82;;
76850;SDS011;65824;43.726;20.692;2023-04-29T12:37:15;9.98;;;4.60;;
76850;SDS011;65824;43.726;20.692;2023-04-29T12:39:42;12.98;;;5.13;;
76850;SDS011;65824;43.726;20.692;2023-04-29T12:42:13;10.55;;;4.85;;
76850;SDS011;65824;43.726;20.692;2023-04-29T12:44:40;11.32;;;5.88;;
76850;SDS011;65824;43.726;20.692;2023-04-29T12:47:09;12.55;;;5.35;;
76850;SDS011;65824;43.726;20.692;2023-04-29T12:49:35;13.73;;;6.60;;
76850;SDS011;65824;43.726;20.692;2023-04-29T12:52:02;15.63;;;7.80;;
76850;SDS011;65824;43.726;20.692;2023-04-29T12:54:29;10.27;;;4.75;;
76850;SDS011;65824;43.726;20.692;2023-04-29T12:56:55;11.32;;;7.10;;
76850;SDS011;65824;43.726;20.692;2023-04-29T12:59:21;11.82;;;4.95;;
76850;SDS011;65824;43.726;20.692;2023-04-29T13:01:47;9.93;;;4.22;;
76850;SDS011;65824;43.726;20.692;2023-04-29T13:04:12;10.07;;;5.38;;
76850;SDS011;65824;43.726;20.692;2023-04-29T13:06:39;16.17;;;9.18;;
76850;SDS011;65824;43.726;20.692;2023-04-29T13:09:06;15.43;;;9.18;;
76850;SDS011;65824;43.726;20.692;2023-04-29T13:11:38;9.88;;;5.00;;
76850;SDS011;65824;43.726;20.692;2023-04-29T13:14:04;8.68;;;5.00;;
76850;SDS011;65824;43.726;20.692;2023-04-29T13:16:32;10.27;;;4.78;;
76850;SDS011;65824;43.726;20.692;2023-04-29T13:18:58;10.02;;;4.78;;
76850;SDS011;65824;43.726;20.692;2023-04-29T13:21:24;10.95;;;5.55;;
76850;SDS011;65824;43.726;20.692;2023-04-29T13:23:49;11.57;;;5.18;;
76850;SDS011;65824;43.726;20.692;2023-04-29T13:26:16;14.25;;;6.97;;
76850;SDS011;65824;43.726;20.692;2023-04-29T13:28:42;17.05;;;5.38;;
76850;SDS011;65824;43.726;20.692;2023-04-29T13:31:08;12.70;;;6.50;;
76850;SDS011;65824;43.726;20.692;2023-04-29T13:33:33;12.50;;;6.45;;
76850;SDS011;65824;43.726;20.692;2023-04-29T13:35:59;10.45;;;5.32;;
76850;SDS011;65824;43.726;20.692;2023-04-29T13:38:25;9.02;;;4.63;;
76850;SDS011;65824;43.726;20.692;2023-04-29T13:40:51;13.35;;;6.90;;
76850;SDS011;65824;43.726;20.692;2023-04-29T13:43:17;13.43;;;6.00;;
76850;SDS011;65824;43.726;20.692;2023-04-29T13:45:43;10.40;;;5.80;;
76850;SDS011;65824;43.726;20.692;2023-04-29T13:48:09;13.35;;;8.00;;
76850;SDS011;65824;43.726;20.692;2023-04-29T13:50:35;10.43;;;5.47;;
76850;SDS011;65824;43.726;20.692;2023-04-29T13:53:04;8.35;;;4.63;;
76850;SDS011;65824;43.726;20.692;2023-04-29T13:55:29;8.80;;;4.65;;
76850;SDS011;65824;43.726;20.692;2023-04-29T13:57:58;8.80;;;4.50;;
76850;SDS011;65824;43.726;20.692;2023-04-29T14:00:24;10.80;;;5.68;;
76850;SDS011;65824;43.726;20.692;2023-04-29T14:02:49;11.88;;;5.47;;
76850;SDS011;65824;43.726;20.692;2023-04-29T14:05:15;8.52;;;5.07;;
76850;SDS011;65824;43.726;20.692;2023-04-29T14:07:42;10.52;;;4.57;;
76850;SDS011;65824;43.726;20.692;2023-04-29T14:10:08;10.27;;;4.80;;
76850;SDS011;65824;43.726;20.692;2023-04-29T14:12:33;9.88;;;4.78;;
76850;SDS011;65824;43.726;20.692;2023-04-29T14:15:00;8.70;;;4.32;;
76850;SDS011;65824;43.726;20.692;2023-04-29T14:17:26;8.07;;;4.50;;
76850;SDS011;65824;43.726;20.692;2023-04-29T14:19:51;12.25;;;4.93;;
76850;SDS011;65824;43.726;20.692;2023-04-29T14:22:17;10.23;;;5.30;;
76850;SDS011;65824;43.726;20.692;2023-04-29T14:24:42;7.68;;;4.65;;
76850;SDS011;65824;43.726;20.692;2023-04-29T14:27:07;9.10;;;4.50;;
76850;SDS011;65824;43.726;20.692;2023-04-29T14:29:33;9.55;;;4.40;;
76850;SDS011;65824;43.726;20.692;2023-04-29T14:31:58;9.60;;;4.90;;
76850;SDS011;65824;43.726;20.692;2023-04-29T14:34:24;8.55;;;4.43;;
76850;SDS011;65824;43.726;20.692;2023-04-29T14:36:49;10.77;;;5.10;;
76850;SDS011;65824;43.726;20.692;2023-04-29T14:39:17;10.38;;;5.53;;
76850;SDS011;65824;43.726;20.692;2023-04-29T14:41:43;15.75;;;5.80;;
76850;SDS011;65824;43.726;20.692;2023-04-29T14:44:08;11.88;;;5.22;;